sensor_id;sensor_type;location;lat;lon;timestamp;pressure;altitude;pressure_sealevel;temperature;humidity
11415;BME280;5763;42.714;23.244;2023-03-22T00:00:15;94226.97;;;12.21;78.07
11415;BME280;5763;42.714;23.244;2023-03-22T00:02:45;94227.69;;;12.22;77.79
11415;BME280;5763;42.714;23.244;2023-03-22T00:05:12;94227.69;;;12.22;77.78
11415;BME280;5763;42.714;23.244;2023-03-22T00:07:38;94228.47;;;12.22;77.49
11415;BME280;5763;42.714;23.244;2023-03-22T00:10:06;94218.63;;;12.16;77.94
11415;BME280;5763;42.714;23.244;2023-03-22T00:12:33;94217.09;;;12.15;78.84
11415;BME280;5763;42.714;23.244;2023-03-22T00:15:00;94219.94;;;12.20;78.15
11415;BME280;5763;42.714;23.244;2023-03-22T00:17:27;94223.56;;;12.26;77.83
11415;BME280;5763;42.714;23.244;2023-03-22T00:19:56;94232.34;;;12.30;78.10
11415;BME280;5763;42.714;23.244;2023-03-22T00:22:23;94224.09;;;12.30;77.18
11415;BME280;5763;42.714;23.244;2023-03-22T00:24:50;94231.13;;;12.31;77.07
11415;BME280;5763;42.714;23.244;2023-03-22T00:27:17;94220.31;;;12.28;77.23
11415;BME280;5763;42.714;23.244;2023-03-22T00:29:44;94219.50;;;12.36;77.12
11415;BME280;5763;42.714;23.244;2023-03-22T00:32:10;94219.38;;;12.31;77.25
11415;BME280;5763;42.714;23.244;2023-03-22T00:34:37;94223.84;;;12.28;77.45
11415;BME280;5763;42.714;23.244;2023-03-22T00:37:05;94218.81;;;12.27;78.15
11415;BME280;5763;42.714;23.244;2023-03-22T00:39:32;94226.69;;;12.34;77.72
11415;BME280;5763;42.714;23.244;2023-03-22T00:41:59;94208.31;;;12.25;77.55
11415;BME280;5763;42.714;23.244;2023-03-22T00:44:26;94208.81;;;12.24;77.88
11415;BME280;5763;42.714;23.244;2023-03-22T00:46:53;94203.00;;;12.22;77.79
11415;BME280;5763;42.714;23.244;2023-03-22T00:49:19;94209.34;;;12.13;77.97
11415;BME280;5763;42.714;23.244;2023-03-22T00:51:46;94212.56;;;12.12;78.60
11415;BME280;5763;42.714;23.244;2023-03-22T00:54:14;94205.38;;;12.14;78.92
11415;BME280;5763;42.714;23.244;2023-03-22T00:56:41;94202.53;;;12.23;78.83
11415;BME280;5763;42.714;23.244;2023-03-22T00:59:09;94204.34;;;12.26;79.18
11415;BME280;5763;42.714;23.244;2023-03-22T01:01:37;94203.31;;;12.24;79.06
11415;BME280;5763;42.714;23.244;2023-03-22T01:04:05;94208.22;;;12.20;79.78
11415;BME280;5763;42.714;23.244;2023-03-22T01:06:32;94194.00;;;12.07;80.08
11415;BME280;5763;42.714;23.244;2023-03-22T01:08:58;94199.19;;;11.90;80.89
11415;BME280;5763;42.714;23.244;2023-03-22T01:11:27;94197.38;;;11.87;80.84
11415;BME280;5763;42.714;23.244;2023-03-22T01:13:53;94203.63;;;11.88;80.49
11415;BME280;5763;42.714;23.244;2023-03-22T01:16:20;94197.75;;;11.80;81.47
11415;BME280;5763;42.714;23.244;2023-03-22T01:18:47;94197.81;;;11.71;82.36
11415;BME280;5763;42.714;23.244;2023-03-22T01:21:14;94190.75;;;11.56;82.65
11415;BME280;5763;42.714;23.244;2023-03-22T01:23:41;94165.00;;;11.39;83.73
11415;BME280;5763;42.714;23.244;2023-03-22T01:26:07;94192.34;;;11.48;84.27
11415;BME280;5763;42.714;23.244;2023-03-22T01:28:35;94185.63;;;11.49;84.91
11415;BME280;5763;42.714;23.244;2023-03-22T01:31:05;94182.13;;;11.48;85.14
11415;BME280;5763;42.714;23.244;2023-03-22T01:33:32;94177.88;;;11.47;84.33
11415;BME280;5763;42.714;23.244;2023-03-22T01:35:58;94180.97;;;11.40;84.48
11415;BME280;5763;42.714;23.244;2023-03-22T01:38:25;94179.47;;;11.39;84.79
11415;BME280;5763;42.714;23.244;2023-03-22T01:40:52;94178.09;;;11.35;84.95
11415;BME280;5763;42.714;23.244;2023-03-22T01:43:19;94176.00;;;11.30;84.90
11415;BME280;5763;42.714;23.244;2023-03-22T01:45:47;94169.59;;;11.33;84.31
11415;BME280;5763;42.714;23.244;2023-03-22T01:48:18;94171.00;;;11.28;84.07
11415;BME280;5763;42.714;23.244;2023-03-22T01:50:53;94173.72;;;11.28;83.53
11415;BME280;5763;42.714;23.244;2023-03-22T01:53:22;94173.00;;;11.28;83.70
11415;BME280;5763;42.714;23.244;2023-03-22T01:55:50;94178.75;;;11.30;83.98
11415;BME280;5763;42.714;23.244;2023-03-22T01:58:18;94178.28;;;11.31;84.44
11415;BME280;5763;42.714;23.244;2023-03-22T02:00:47;94186.97;;;11.30;84.21
11415;BME280;5763;42.714;23.244;2023-03-22T02:03:16;94172.59;;;11.20;84.53
11415;BME280;5763;42.714;23.244;2023-03-22T02:05:46;94184.75;;;11.19;85.18
11415;BME280;5763;42.714;23.244;2023-03-22T02:08:13;94184.19;;;11.15;85.59
11415;BME280;5763;42.714;23.244;2023-03-22T02:10:40;94191.44;;;11.18;85.73
11415;BME280;5763;42.714;23.244;2023-03-22T02:13:19;94177.88;;;11.24;86.00
11415;BME280;5763;42.714;23.244;2023-03-22T02:16:00;94185.63;;;11.25;84.69
11415;BME280;5763;42.714;23.244;2023-03-22T02:18:37;94170.47;;;11.15;84.52
11415;BME280;5763;42.714;23.244;2023-03-22T02:21:28;94184.13;;;11.24;84.57
11415;BME280;5763;42.714;23.244;2023-03-22T02:27:18;94184.88;;;11.25;84.48
11415;BME280;5763;42.714;23.244;2023-03-22T02:29:53;94195.81;;;11.25;84.61
11415;BME280;5763;42.714;23.244;2023-03-22T02:32:53;94187.31;;;11.23;84.07
11415;BME280;5763;42.714;23.244;2023-03-22T02:35:36;94201.53;;;11.12;84.12
11415;BME280;5763;42.714;23.244;2023-03-22T02:41:30;94191.75;;;11.20;83.95
11415;BME280;5763;42.714;23.244;2023-03-22T02:44:06;94197.69;;;11.19;84.05
11415;BME280;5763;42.714;23.244;2023-03-22T02:46:42;94198.91;;;11.18;84.38
11415;BME280;5763;42.714;23.244;2023-03-22T02:49:15;94199.09;;;11.14;83.63
11415;BME280;5763;42.714;23.244;2023-03-22T02:51:47;94198.25;;;10.99;84.21
11415;BME280;5763;42.714;23.244;2023-03-22T02:54:19;94198.22;;;11.08;84.47
11415;BME280;5763;42.714;23.244;2023-03-22T02:56:52;94205.53;;;11.02;84.87
11415;BME280;5763;42.714;23.244;2023-03-22T02:59:22;94205.69;;;10.99;85.25
11415;BME280;5763;42.714;23.244;2023-03-22T03:01:52;94202.34;;;11.04;85.31
11415;BME280;5763;42.714;23.244;2023-03-22T03:04:24;94201.28;;;11.01;84.79
11415;BME280;5763;42.714;23.244;2023-03-22T03:06:56;94197.81;;;11.01;84.25
11415;BME280;5763;42.714;23.244;2023-03-22T03:09:25;94204.38;;;10.94;84.93
11415;BME280;5763;42.714;23.244;2023-03-22T03:11:53;94208.25;;;11.02;85.14
11415;BME280;5763;42.714;23.244;2023-03-22T03:14:21;94201.50;;;10.89;84.51
11415;BME280;5763;42.714;23.244;2023-03-22T03:16:58;94206.78;;;10.92;84.62
11415;BME280;5763;42.714;23.244;2023-03-22T03:19:33;94199.81;;;10.91;84.26
11415;BME280;5763;42.714;23.244;2023-03-22T03:22:12;94209.25;;;10.90;84.57
11415;BME280;5763;42.714;23.244;2023-03-22T03:24:48;94205.09;;;10.95;83.87
11415;BME280;5763;42.714;23.244;2023-03-22T03:27:21;94198.28;;;10.90;83.96
11415;BME280;5763;42.714;23.244;2023-03-22T03:29:54;94213.66;;;10.88;84.64
11415;BME280;5763;42.714;23.244;2023-03-22T03:32:28;94205.09;;;10.95;85.10
11415;BME280;5763;42.714;23.244;2023-03-22T03:35:03;94204.47;;;11.00;84.92
11415;BME280;5763;42.714;23.244;2023-03-22T03:37:34;94204.63;;;11.05;84.94
11415;BME280;5763;42.714;23.244;2023-03-22T03:40:06;94215.22;;;11.12;83.44
11415;BME280;5763;42.714;23.244;2023-03-22T03:42:39;94207.97;;;11.00;83.46
11415;BME280;5763;42.714;23.244;2023-03-22T03:45:09;94213.91;;;10.99;83.53
11415;BME280;5763;42.714;23.244;2023-03-22T03:47:36;94215.56;;;11.05;83.30
11415;BME280;5763;42.714;23.244;2023-03-22T03:50:04;94213.75;;;11.02;83.29
11415;BME280;5763;42.714;23.244;2023-03-22T03:52:31;94222.56;;;11.06;83.13
11415;BME280;5763;42.714;23.244;2023-03-22T03:54:58;94213.00;;;11.02;83.24
11415;BME280;5763;42.714;23.244;2023-03-22T03:57:24;94221.03;;;11.05;83.41
11415;BME280;5763;42.714;23.244;2023-03-22T03:59:53;94225.91;;;11.01;83.61
11415;BME280;5763;42.714;23.244;2023-03-22T04:02:19;94231.53;;;11.07;83.63
11415;BME280;5763;42.714;23.244;2023-03-22T04:04:46;94238.38;;;11.02;83.94
11415;BME280;5763;42.714;23.244;2023-03-22T04:07:13;94220.19;;;10.90;84.26
11415;BME280;5763;42.714;23.244;2023-03-22T04:09:40;94226.28;;;10.94;84.66
11415;BME280;5763;42.714;23.244;2023-03-22T04:12:07;94228.97;;;11.03;84.45
11415;BME280;5763;42.714;23.244;2023-03-22T04:14:34;94241.59;;;11.01;84.80
11415;BME280;5763;42.714;23.244;2023-03-22T04:17:03;94228.53;;;10.96;85.27
11415;BME280;5763;42.714;23.244;2023-03-22T04:19:29;94235.81;;;10.99;85.53
11415;BME280;5763;42.714;23.244;2023-03-22T04:21:56;94234.13;;;11.01;84.87
11415;BME280;5763;42.714;23.244;2023-03-22T04:24:25;94221.25;;;10.93;84.98
11415;BME280;5763;42.714;23.244;2023-03-22T04:26:52;94231.75;;;10.94;85.42
11415;BME280;5763;42.714;23.244;2023-03-22T04:29:19;94240.84;;;11.00;85.69
11415;BME280;5763;42.714;23.244;2023-03-22T04:31:46;94244.44;;;11.06;85.29
11415;BME280;5763;42.714;23.244;2023-03-22T04:34:14;94246.56;;;11.11;85.25
11415;BME280;5763;42.714;23.244;2023-03-22T04:36:41;94239.75;;;11.07;84.50
11415;BME280;5763;42.714;23.244;2023-03-22T04:39:10;94239.91;;;11.03;84.03
11415;BME280;5763;42.714;23.244;2023-03-22T04:41:37;94241.75;;;10.97;84.69
11415;BME280;5763;42.714;23.244;2023-03-22T04:44:04;94246.44;;;11.06;84.95
11415;BME280;5763;42.714;23.244;2023-03-22T04:46:33;94242.94;;;11.05;85.00
11415;BME280;5763;42.714;23.244;2023-03-22T04:49:00;94242.16;;;11.05;84.08
11415;BME280;5763;42.714;23.244;2023-03-22T04:51:29;94242.94;;;11.05;83.83
11415;BME280;5763;42.714;23.244;2023-03-22T04:53:57;94240.84;;;11.00;84.17
11415;BME280;5763;42.714;23.244;2023-03-22T04:56:25;94254.81;;;11.02;84.25
11415;BME280;5763;42.714;23.244;2023-03-22T04:58:52;94257.69;;;11.08;83.67
11415;BME280;5763;42.714;23.244;2023-03-22T05:01:19;94256.47;;;11.09;83.37
11415;BME280;5763;42.714;23.244;2023-03-22T05:03:46;94259.34;;;11.14;83.60
11415;BME280;5763;42.714;23.244;2023-03-22T05:06:13;94247.75;;;11.19;82.37
11415;BME280;5763;42.714;23.244;2023-03-22T05:08:42;94252.03;;;11.11;83.04
11415;BME280;5763;42.714;23.244;2023-03-22T05:11:11;94263.41;;;11.19;83.18
11415;BME280;5763;42.714;23.244;2023-03-22T05:13:38;94271.34;;;11.17;83.32
11415;BME280;5763;42.714;23.244;2023-03-22T05:16:06;94266.97;;;11.10;83.06
11415;BME280;5763;42.714;23.244;2023-03-22T05:18:32;94262.22;;;11.11;83.22
11415;BME280;5763;42.714;23.244;2023-03-22T05:21:02;94271.34;;;11.17;83.06
11415;BME280;5763;42.714;23.244;2023-03-22T05:23:31;94279.66;;;11.22;82.61
11415;BME280;5763;42.714;23.244;2023-03-22T05:25:59;94283.03;;;11.17;82.43
11415;BME280;5763;42.714;23.244;2023-03-22T05:28:28;94277.09;;;11.19;81.35
11415;BME280;5763;42.714;23.244;2023-03-22T05:30:56;94273.91;;;11.20;81.38
11415;BME280;5763;42.714;23.244;2023-03-22T05:33:22;94284.81;;;11.29;80.86
11415;BME280;5763;42.714;23.244;2023-03-22T05:35:49;94276.75;;;11.26;80.03
11415;BME280;5763;42.714;23.244;2023-03-22T05:38:16;94277.06;;;11.28;79.64
11415;BME280;5763;42.714;23.244;2023-03-22T05:40:44;94283.59;;;11.30;79.55
11415;BME280;5763;42.714;23.244;2023-03-22T05:43:12;94287.22;;;11.36;79.32
11415;BME280;5763;42.714;23.244;2023-03-22T05:45:39;94277.78;;;11.37;79.21
11415;BME280;5763;42.714;23.244;2023-03-22T05:48:06;94283.66;;;11.45;79.08
11415;BME280;5763;42.714;23.244;2023-03-22T05:50:33;94282.44;;;11.46;79.24
11415;BME280;5763;42.714;23.244;2023-03-22T05:53:00;94281.09;;;11.41;79.67
11415;BME280;5763;42.714;23.244;2023-03-22T05:55:28;94281.88;;;11.42;79.34
11415;BME280;5763;42.714;23.244;2023-03-22T05:57:56;94264.13;;;11.28;79.04
11415;BME280;5763;42.714;23.244;2023-03-22T06:00:25;94292.94;;;11.47;79.11
11415;BME280;5763;42.714;23.244;2023-03-22T06:02:53;94302.97;;;11.50;79.47
11415;BME280;5763;42.714;23.244;2023-03-22T06:05:21;94307.81;;;11.55;78.39
11415;BME280;5763;42.714;23.244;2023-03-22T06:07:48;94301.56;;;11.55;78.34
11415;BME280;5763;42.714;23.244;2023-03-22T06:10:15;94293.81;;;11.53;79.17
11415;BME280;5763;42.714;23.244;2023-03-22T06:12:42;94308.84;;;11.67;79.36
11415;BME280;5763;42.714;23.244;2023-03-22T06:15:10;94303.25;;;11.61;79.72
11415;BME280;5763;42.714;23.244;2023-03-22T06:17:38;94318.13;;;11.69;79.15
11415;BME280;5763;42.714;23.244;2023-03-22T06:20:07;94302.25;;;11.73;78.85
11415;BME280;5763;42.714;23.244;2023-03-22T06:22:36;94304.06;;;11.76;79.01
11415;BME280;5763;42.714;23.244;2023-03-22T06:25:03;94307.06;;;11.87;78.58
11415;BME280;5763;42.714;23.244;2023-03-22T06:27:31;94307.81;;;11.88;77.32
11415;BME280;5763;42.714;23.244;2023-03-22T06:29:58;94309.91;;;11.93;77.94
11415;BME280;5763;42.714;23.244;2023-03-22T06:32:25;94313.59;;;11.90;78.34
11415;BME280;5763;42.714;23.244;2023-03-22T06:34:54;94323.78;;;11.89;79.29
11415;BME280;5763;42.714;23.244;2023-03-22T06:37:21;94317.09;;;11.90;78.79
11415;BME280;5763;42.714;23.244;2023-03-22T06:39:48;94325.19;;;12.08;78.35
11415;BME280;5763;42.714;23.244;2023-03-22T06:42:16;94325.13;;;12.17;79.23
11415;BME280;5763;42.714;23.244;2023-03-22T06:44:43;94321.16;;;12.18;78.95
11415;BME280;5763;42.714;23.244;2023-03-22T06:47:10;94321.50;;;12.11;78.23
11415;BME280;5763;42.714;23.244;2023-03-22T06:49:37;94317.19;;;12.19;79.01
11415;BME280;5763;42.714;23.244;2023-03-22T06:52:05;94325.13;;;12.17;78.71
11415;BME280;5763;42.714;23.244;2023-03-22T06:54:32;94325.34;;;12.28;79.37
11415;BME280;5763;42.714;23.244;2023-03-22T06:56:59;94325.63;;;12.30;78.96
11415;BME280;5763;42.714;23.244;2023-03-22T06:59:26;94323.66;;;12.31;78.20
11415;BME280;5763;42.714;23.244;2023-03-22T07:01:53;94328.75;;;12.38;78.10
11415;BME280;5763;42.714;23.244;2023-03-22T07:04:20;94340.31;;;12.42;76.83
11415;BME280;5763;42.714;23.244;2023-03-22T07:06:48;94333.09;;;12.30;78.12
11415;BME280;5763;42.714;23.244;2023-03-22T07:09:17;94329.13;;;12.31;78.86
11415;BME280;5763;42.714;23.244;2023-03-22T07:11:44;94341.81;;;12.28;79.21
11415;BME280;5763;42.714;23.244;2023-03-22T07:14:10;94336.69;;;12.21;80.16
11415;BME280;5763;42.714;23.244;2023-03-22T07:16:37;94332.31;;;12.15;81.31
11415;BME280;5763;42.714;23.244;2023-03-22T07:19:04;94337.16;;;12.20;80.85
11415;BME280;5763;42.714;23.244;2023-03-22T07:21:31;94350.63;;;12.32;79.98
11415;BME280;5763;42.714;23.244;2023-03-22T07:23:58;94343.31;;;12.29;79.77
11415;BME280;5763;42.714;23.244;2023-03-22T07:26:26;94353.63;;;12.34;79.41
11415;BME280;5763;42.714;23.244;2023-03-22T07:28:54;94367.22;;;12.52;78.81
11415;BME280;5763;42.714;23.244;2023-03-22T07:31:21;94353.94;;;12.36;79.13
11415;BME280;5763;42.714;23.244;2023-03-22T07:33:48;94360.53;;;12.30;78.63
11415;BME280;5763;42.714;23.244;2023-03-22T07:36:16;94369.59;;;12.21;79.39
11415;BME280;5763;42.714;23.244;2023-03-22T07:38:48;94362.00;;;12.16;79.57
11415;BME280;5763;42.714;23.244;2023-03-22T07:41:15;94357.56;;;12.19;79.87
11415;BME280;5763;42.714;23.244;2023-03-22T07:43:43;94373.44;;;12.38;79.11
11415;BME280;5763;42.714;23.244;2023-03-22T07:46:11;94362.72;;;12.40;78.45
11415;BME280;5763;42.714;23.244;2023-03-22T07:48:37;94384.69;;;12.40;79.04
11415;BME280;5763;42.714;23.244;2023-03-22T07:51:05;94376.19;;;12.38;79.04
11415;BME280;5763;42.714;23.244;2023-03-22T07:53:32;94380.25;;;12.43;79.51
11415;BME280;5763;42.714;23.244;2023-03-22T07:56:00;94373.84;;;12.60;78.25
11415;BME280;5763;42.714;23.244;2023-03-22T07:58:27;94377.16;;;12.50;78.08
11415;BME280;5763;42.714;23.244;2023-03-22T08:00:55;94375.34;;;12.47;76.42
11415;BME280;5763;42.714;23.244;2023-03-22T08:03:22;94380.44;;;12.39;75.63
11415;BME280;5763;42.714;23.244;2023-03-22T08:05:49;94384.38;;;12.24;76.57
11415;BME280;5763;42.714;23.244;2023-03-22T08:08:16;94379.81;;;12.21;76.04
11415;BME280;5763;42.714;23.244;2023-03-22T08:10:47;94389.25;;;12.20;76.63
11415;BME280;5763;42.714;23.244;2023-03-22T08:13:14;94381.13;;;12.25;76.27
11415;BME280;5763;42.714;23.244;2023-03-22T08:15:41;94383.81;;;12.34;76.79
11415;BME280;5763;42.714;23.244;2023-03-22T08:18:09;94386.16;;;12.27;77.36
11415;BME280;5763;42.714;23.244;2023-03-22T08:20:36;94381.72;;;12.29;77.14
11415;BME280;5763;42.714;23.244;2023-03-22T08:23:03;94381.13;;;12.25;76.16
11415;BME280;5763;42.714;23.244;2023-03-22T08:25:32;94389.13;;;12.14;76.73
11415;BME280;5763;42.714;23.244;2023-03-22T08:27:59;94393.06;;;12.22;76.53
11415;BME280;5763;42.714;23.244;2023-03-22T08:30:26;94391.88;;;12.14;76.85
11415;BME280;5763;42.714;23.244;2023-03-22T08:32:53;94389.50;;;12.07;77.90
11415;BME280;5763;42.714;23.244;2023-03-22T08:35:21;94406.47;;;12.20;77.68
11415;BME280;5763;42.714;23.244;2023-03-22T08:37:52;94389.78;;;12.09;77.36
11415;BME280;5763;42.714;23.244;2023-03-22T08:40:19;94403.38;;;12.04;78.64
11415;BME280;5763;42.714;23.244;2023-03-22T08:42:47;94400.50;;;11.98;79.78
11415;BME280;5763;42.714;23.244;2023-03-22T08:45:14;94402.38;;;11.92;81.52
11415;BME280;5763;42.714;23.244;2023-03-22T08:47:41;94407.69;;;11.96;82.29
11415;BME280;5763;42.714;23.244;2023-03-22T08:50:08;94404.06;;;11.90;80.43
11415;BME280;5763;42.714;23.244;2023-03-22T08:52:37;94406.97;;;11.86;81.12
11415;BME280;5763;42.714;23.244;2023-03-22T08:55:05;94405.91;;;11.84;81.62
11415;BME280;5763;42.714;23.244;2023-03-22T08:57:33;94405.63;;;11.82;82.46
11415;BME280;5763;42.714;23.244;2023-03-22T08:59:59;94413.84;;;11.82;81.87
11415;BME280;5763;42.714;23.244;2023-03-22T09:02:26;94407.00;;;11.77;82.11
11415;BME280;5763;42.714;23.244;2023-03-22T09:04:53;94411.16;;;11.73;82.56
11415;BME280;5763;42.714;23.244;2023-03-22T09:07:20;94408.84;;;11.80;83.24
11415;BME280;5763;42.714;23.244;2023-03-22T09:09:49;94416.00;;;11.78;84.39
11415;BME280;5763;42.714;23.244;2023-03-22T09:12:16;94408.50;;;11.87;83.40
11415;BME280;5763;42.714;23.244;2023-03-22T09:14:43;94418.66;;;11.96;83.24
11415;BME280;5763;42.714;23.244;2023-03-22T09:17:11;94420.50;;;11.90;82.73
11415;BME280;5763;42.714;23.244;2023-03-22T09:19:38;94413.09;;;11.81;82.67
11415;BME280;5763;42.714;23.244;2023-03-22T09:22:04;94414.59;;;11.82;82.24
11415;BME280;5763;42.714;23.244;2023-03-22T09:24:31;94419.81;;;11.80;82.73
11415;BME280;5763;42.714;23.244;2023-03-22T09:26:59;94417.06;;;11.80;82.97
11415;BME280;5763;42.714;23.244;2023-03-22T09:29:26;94417.63;;;11.84;83.00
11415;BME280;5763;42.714;23.244;2023-03-22T09:31:52;94414.59;;;11.82;81.36
11415;BME280;5763;42.714;23.244;2023-03-22T09:34:19;94408.94;;;11.86;79.86
11415;BME280;5763;42.714;23.244;2023-03-22T09:36:46;94417.53;;;11.79;80.37
11415;BME280;5763;42.714;23.244;2023-03-22T09:39:13;94410.31;;;11.90;81.03
11415;BME280;5763;42.714;23.244;2023-03-22T09:41:44;94410.31;;;11.90;81.65
11415;BME280;5763;42.714;23.244;2023-03-22T09:44:15;94413.16;;;11.96;82.09
11415;BME280;5763;42.714;23.244;2023-03-22T09:46:46;94415.72;;;11.99;82.31
11415;BME280;5763;42.714;23.244;2023-03-22T09:49:16;94414.09;;;11.93;80.72
11415;BME280;5763;42.714;23.244;2023-03-22T09:51:46;94432.81;;;11.94;80.75
11415;BME280;5763;42.714;23.244;2023-03-22T09:54:15;94419.69;;;11.98;79.86
11415;BME280;5763;42.714;23.244;2023-03-22T09:56:46;94416.69;;;11.96;79.55
11415;BME280;5763;42.714;23.244;2023-03-22T09:59:21;94417.19;;;12.09;79.70
11415;BME280;5763;42.714;23.244;2023-03-22T10:01:52;94415.09;;;12.04;80.33
11415;BME280;5763;42.714;23.244;2023-03-22T10:04:32;94419.03;;;12.12;80.42
11415;BME280;5763;42.714;23.244;2023-03-22T10:07:08;94420.06;;;12.15;80.30
11415;BME280;5763;42.714;23.244;2023-03-22T10:09:46;94412.66;;;12.06;80.46
11415;BME280;5763;42.714;23.244;2023-03-22T10:12:20;94416.59;;;12.05;81.04
11415;BME280;5763;42.714;23.244;2023-03-22T10:14:58;94416.03;;;12.01;81.66
11415;BME280;5763;42.714;23.244;2023-03-22T10:17:28;94420.75;;;12.01;82.50
11415;BME280;5763;42.714;23.244;2023-03-22T10:19:58;94423.03;;;12.02;82.47
11415;BME280;5763;42.714;23.244;2023-03-22T10:22:29;94424.84;;;12.05;82.02
11415;BME280;5763;42.714;23.244;2023-03-22T10:24:59;94424.19;;;12.10;82.22
11415;BME280;5763;42.714;23.244;2023-03-22T10:27:28;94434.28;;;12.04;82.42
11415;BME280;5763;42.714;23.244;2023-03-22T10:30:02;94421.69;;;11.98;82.19
11415;BME280;5763;42.714;23.244;2023-03-22T10:32:35;94427.16;;;11.98;81.89
11415;BME280;5763;42.714;23.244;2023-03-22T10:35:12;94420.63;;;11.95;81.88
11415;BME280;5763;42.714;23.244;2023-03-22T10:37:40;94418.78;;;12.01;81.38
11415;BME280;5763;42.714;23.244;2023-03-22T10:40:14;94422.50;;;12.13;81.39
11415;BME280;5763;42.714;23.244;2023-03-22T10:42:46;94420.50;;;12.22;80.98
11415;BME280;5763;42.714;23.244;2023-03-22T10:45:19;94412.53;;;12.24;80.85
11415;BME280;5763;42.714;23.244;2023-03-22T10:47:49;94428.41;;;12.20;80.54
11415;BME280;5763;42.714;23.244;2023-03-22T10:50:25;94427.72;;;12.34;79.40
11415;BME280;5763;42.714;23.244;2023-03-22T10:52:57;94415.59;;;12.50;78.48
11415;BME280;5763;42.714;23.244;2023-03-22T10:55:26;94432.72;;;12.59;77.44
11415;BME280;5763;42.714;23.244;2023-03-22T10:58:11;94423.66;;;12.68;76.01
11415;BME280;5763;42.714;23.244;2023-03-22T11:00:44;94437.72;;;12.84;75.01
11415;BME280;5763;42.714;23.244;2023-03-22T11:03:25;94430.94;;;12.94;74.27
11415;BME280;5763;42.714;23.244;2023-03-22T11:05:58;94423.78;;;12.97;73.92
11415;BME280;5763;42.714;23.244;2023-03-22T11:08:25;94427.00;;;13.10;73.59
11415;BME280;5763;42.714;23.244;2023-03-22T11:10:52;94429.66;;;13.04;74.10
11415;BME280;5763;42.714;23.244;2023-03-22T11:13:24;94427.66;;;12.81;75.06
11415;BME280;5763;42.714;23.244;2023-03-22T11:15:58;94425.94;;;12.69;76.29
11415;BME280;5763;42.714;23.244;2023-03-22T11:18:29;94418.44;;;12.55;77.19
11415;BME280;5763;42.714;23.244;2023-03-22T11:20:58;94419.38;;;12.52;77.33
11415;BME280;5763;42.714;23.244;2023-03-22T11:23:26;94417.91;;;12.42;78.32
11415;BME280;5763;42.714;23.244;2023-03-22T11:25:59;94420.06;;;12.38;79.37
11415;BME280;5763;42.714;23.244;2023-03-22T11:28:34;94417.97;;;12.57;78.41
11415;BME280;5763;42.714;23.244;2023-03-22T11:31:07;94420.81;;;12.62;78.17
11415;BME280;5763;42.714;23.244;2023-03-22T11:33:35;94416.63;;;12.52;78.75
11415;BME280;5763;42.714;23.244;2023-03-22T11:36:13;94406.63;;;12.40;78.54
11415;BME280;5763;42.714;23.244;2023-03-22T11:38:40;94402.91;;;12.52;77.07
11415;BME280;5763;42.714;23.244;2023-03-22T11:41:12;94403.81;;;12.73;75.35
11415;BME280;5763;42.714;23.244;2023-03-22T11:43:47;94408.19;;;12.79;74.51
11415;BME280;5763;42.714;23.244;2023-03-22T11:46:17;94412.56;;;12.86;74.39
11415;BME280;5763;42.714;23.244;2023-03-22T11:48:45;94398.72;;;12.95;73.85
11415;BME280;5763;42.714;23.244;2023-03-22T11:51:15;94402.38;;;13.01;71.90
11415;BME280;5763;42.714;23.244;2023-03-22T11:53:43;94398.59;;;12.98;71.08
11415;BME280;5763;42.714;23.244;2023-03-22T11:56:15;94402.53;;;12.97;70.32
11415;BME280;5763;42.714;23.244;2023-03-22T11:58:49;94404.16;;;13.04;69.42
11415;BME280;5763;42.714;23.244;2023-03-22T12:01:30;94416.19;;;13.06;69.99
11415;BME280;5763;42.714;23.244;2023-03-22T12:04:00;94417.72;;;13.07;70.64
11415;BME280;5763;42.714;23.244;2023-03-22T12:06:32;94412.06;;;13.11;70.81
11415;BME280;5763;42.714;23.244;2023-03-22T12:09:03;94407.28;;;13.11;71.75
11415;BME280;5763;42.714;23.244;2023-03-22T12:11:33;94403.97;;;13.07;71.42
11415;BME280;5763;42.714;23.244;2023-03-22T12:14:04;94404.97;;;12.95;71.40
11415;BME280;5763;42.714;23.244;2023-03-22T12:16:43;94397.66;;;12.92;71.09
11415;BME280;5763;42.714;23.244;2023-03-22T12:19:20;94407.22;;;13.06;71.60
11415;BME280;5763;42.714;23.244;2023-03-22T12:21:48;94407.94;;;13.06;72.35
11415;BME280;5763;42.714;23.244;2023-03-22T12:24:25;94406.38;;;13.14;71.65
11415;BME280;5763;42.714;23.244;2023-03-22T12:26:55;94400.56;;;13.12;69.98
11415;BME280;5763;42.714;23.244;2023-03-22T12:29:24;94396.13;;;13.15;69.05
11415;BME280;5763;42.714;23.244;2023-03-22T12:31:59;94402.66;;;13.17;69.19
11415;BME280;5763;42.714;23.244;2023-03-22T12:34:34;94403.31;;;13.41;69.90
11415;BME280;5763;42.714;23.244;2023-03-22T12:37:04;94400.00;;;13.52;69.07
11415;BME280;5763;42.714;23.244;2023-03-22T12:39:36;94394.22;;;13.50;67.42
11415;BME280;5763;42.714;23.244;2023-03-22T12:42:12;94401.16;;;13.45;66.87
11415;BME280;5763;42.714;23.244;2023-03-22T12:44:44;94392.50;;;13.52;65.55
11415;BME280;5763;42.714;23.244;2023-03-22T12:47:17;94392.41;;;13.61;66.35
11415;BME280;5763;42.714;23.244;2023-03-22T12:49:53;94392.88;;;13.60;66.19
11415;BME280;5763;42.714;23.244;2023-03-22T12:52:25;94388.91;;;13.61;65.68
11415;BME280;5763;42.714;23.244;2023-03-22T12:54:57;94403.31;;;13.56;65.75
11415;BME280;5763;42.714;23.244;2023-03-22T12:57:26;94399.16;;;13.60;64.70
11415;BME280;5763;42.714;23.244;2023-03-22T12:59:55;94388.72;;;13.64;64.83
11415;BME280;5763;42.714;23.244;2023-03-22T13:02:28;94394.28;;;13.70;64.96
11415;BME280;5763;42.714;23.244;2023-03-22T13:04:57;94387.94;;;13.64;65.53
11415;BME280;5763;42.714;23.244;2023-03-22T13:07:49;94373.19;;;13.47;66.01
11415;BME280;5763;42.714;23.244;2023-03-22T13:10:38;94399.72;;;13.64;66.03
11415;BME280;5763;42.714;23.244;2023-03-22T13:13:13;94389.31;;;13.39;66.96
11415;BME280;5763;42.714;23.244;2023-03-22T13:15:56;94390.53;;;13.38;66.60
11415;BME280;5763;42.714;23.244;2023-03-22T13:18:54;94382.88;;;13.28;66.54